Weather at Charlotte-Monroe Executive Airport

Public forecast

Using degrees Fahrenheit for public forecast. Weather courtesy of forecast.io.

Current aviation weather report (METAR) for Charlotte-Monroe Executive Airport

2024/06/23 04:53 (retrieved 50 minutes ago)

KEQY 230453Z AUTO VRB06KT 10SM CLR 26/22 A3003 RMK AO2 SLP166 T02560222 403390211

Closest aviation forecast (TAF) to Charlotte-Monroe Executive Airport

Forecast is more than 12 hours old.

Closest forecast is MCAS New River / McCutcheon Field, 157.8 nm (292.2 km) E.

2024/06/22 10:14 Ammendment (retrieved 19 hours ago)

TAF AMD KNCA 2210/2309 VRB06KT 9999 FEW050 SCT090 QNH3011INS TEMPO 2210/2212 0800 FG SCT005 BKN050 FM221600 21010KT 9999 BKN040 QNH3001INS TEMPO 2216/2222 21010G15KT 9000 -SHRA BR BKN020 FM222230 20010G15KT 9999 BKN050 QNH2999INS TEMPO 2305/2309 20010KT 1600 BR T32/2218Z T22/2308Z AMD 1002